KMXO/MXO METAR and TAF weather

Enter ICAO airport designator
Station Type Date Time Source
KMXO METAR 2018/12/19 03:15 UTC NOAA

KMXO 190315Z AUTO 16007KT 10SM CLR 02/M01 A2993 RMK AO2


Station Type Date Time Source
KMXO Decoded METAR 2018/12/19 03:15 UTC NOAA

Monticello Municipal, IA, United States (KMXO) 42-14N 091-10W
Dec 18, 2018 - 10:15 PM EST / 2018.12.19 0315 UTC
Wind: from the SSE (160 degrees) at 8 MPH (7 KT):0
Visibility: 10 mile(s):0
Sky conditions: clear
Temperature: 35 F (2 C)
Windchill: 28 F (-2 C):1
Dew Point: 30 F (-1 C)
Relative Humidity: 80%
Pressure (altimeter): 29.93 in. Hg (1013 hPa)
ob: KMXO 190315Z AUTO 16007KT 10SM CLR 02/M01 A2993 RMK AO2
cycle: 3

Station Type Date Time Source
KMXO TAF UTC NOAA

Error!


Example: see airport list